Time;durP1;ratioP1;P1;durP2;ratioP2;P2;SDS_P1;SDS_P2;PMS_P1;PMS_P2;Temp;Humidity;BMP_temperature;BMP_pressure;BME280_temperature;BME280_humidity;BME280_pressure;Samples;Min_cycle;Max_cycle;Signal;HPM_P1;HPM_P2
2023/01/01 00:01:31;;;;;;;9.13;5.40;;;;;;;13.55;86.69;100409.07;1789381;78;27428;-76
2023/01/01 00:03:59;;;;;;;9.53;5.28;;;;;;;13.55;86.75;100406.89;1790711;80;26449;-76
2023/01/01 00:06:25;;;;;;;8.33;4.90;;;;;;;13.56;86.64;100401.30;1763165;80;25781;-77
2023/01/01 00:10:26;;;;;;;7.87;5.28;;;;;;;13.55;86.68;100399.66;1786812;78;26692;-77
2023/01/01 00:11:20;;;;;;;8.50;4.60;;;;;;;13.57;86.39;100407.51;1784760;78;25504;-78
2023/01/01 00:13:48;;;;;;;7.70;5.33;;;;;;;13.56;86.50;100411.22;1794079;78;28245;-77
2023/01/01 00:16:15;;;;;;;9.10;5.25;;;;;;;13.58;86.45;100418.59;1790252;80;25794;-77
2023/01/01 00:18:41;;;;;;;9.73;5.92;;;;;;;13.58;86.44;100419.94;1769061;80;25790;-77
2023/01/01 00:21:12;;;;;;;9.03;5.55;;;;;;;13.59;86.28;100414.34;1768887;78;26425;-77
2023/01/01 00:23:39;;;;;;;8.33;5.47;;;;;;;13.60;86.29;100413.83;1768016;78;25795;-77
2023/01/01 00:26:14;;;;;;;7.78;4.85;;;;;;;13.61;86.24;100415.47;1767468;78;27463;-78
2023/01/01 00:28:41;;;;;;;8.93;5.90;;;;;;;13.62;86.21;100421.17;1760414;78;25693;-77
2023/01/01 00:31:16;;;;;;;10.63;5.65;;;;;;;13.62;86.18;100412.55;1760775;78;25626;-78
2023/01/01 00:33:45;;;;;;;8.43;5.20;;;;;;;13.63;86.10;100412.05;1760575;78;25787;-77
2023/01/01 00:36:16;;;;;;;7.83;5.42;;;;;;;13.63;86.00;100408.84;1771746;80;25763;-77
2023/01/01 00:38:44;;;;;;;8.13;5.10;;;;;;;13.65;85.90;100407.27;1768482;78;27311;-77
2023/01/01 00:41:13;;;;;;;8.43;5.03;;;;;;;13.65;85.83;100412.66;1765943;78;26438;-77
2023/01/01 00:43:40;;;;;;;8.88;5.55;;;;;;;13.65;85.87;100422.91;1758936;78;25765;-77
2023/01/01 00:46:08;;;;;;;8.63;4.87;;;;;;;13.66;85.84;100417.02;1750443;79;25712;-77
2023/01/01 00:48:34;;;;;;;9.30;5.78;;;;;;;13.65;85.74;100414.84;1754340;79;26426;-78
2023/01/01 00:51:02;;;;;;;11.73;5.62;;;;;;;13.65;85.75;100416.69;1719738;81;27616;-78
2023/01/01 00:53:29;;;;;;;10.15;5.75;;;;;;;13.63;85.66;100411.53;1748492;79;25928;-78
2023/01/01 00:55:55;;;;;;;9.95;5.97;;;;;;;13.63;85.64;100416.91;1768511;79;25799;-78
2023/01/01 00:58:24;;;;;;;9.78;6.03;;;;;;;13.62;85.55;100414.44;1739824;81;25746;-77
2023/01/01 01:00:52;;;;;;;9.50;6.55;;;;;;;13.61;85.49;100418.98;1740978;80;25906;-77
2023/01/01 01:03:27;;;;;;;12.75;6.55;;;;;;;13.60;85.48;100420.56;1779143;79;28504;-78
2023/01/01 01:06:05;;;;;;;9.45;6.33;;;;;;;13.58;85.46;100424.78;1768098;79;25928;-77
2023/01/01 01:08:34;;;;;;;8.95;6.08;;;;;;;13.56;85.57;100422.82;1758671;80;25719;-79
2023/01/01 01:11:22;;;;;;;10.60;6.53;;;;;;;13.56;85.48;100419.30;1773298;80;25755;-79
2023/01/01 01:13:53;;;;;;;12.43;7.50;;;;;;;13.53;85.39;100420.56;1771958;79;26494;-78
2023/01/01 01:16:24;;;;;;;13.40;8.70;;;;;;;13.52;85.37;100430.17;1772897;79;27695;-78
2023/01/01 01:18:53;;;;;;;13.20;8.28;;;;;;;13.51;85.43;100427.19;1741441;81;25708;-78
2023/01/01 01:21:23;;;;;;;15.20;9.18;;;;;;;13.50;85.40;100414.25;1740825;81;25813;-78
2023/01/01 01:23:50;;;;;;;13.68;9.75;;;;;;;13.50;85.43;100416.10;1735586;80;26651;-78
2023/01/01 01:26:21;;;;;;;12.58;9.30;;;;;;;13.52;85.46;100424.28;1740532;80;25932;-78
2023/01/01 01:28:47;;;;;;;;;;;;;;;13.53;85.46;100425.95;1744667;81;28241;-78
2023/01/01 01:31:15;;;;;;;14.80;8.53;;;;;;;13.54;85.35;100435.66;1740643;80;26155;-77
2023/01/01 01:33:45;;;;;;;13.85;8.75;;;;;;;13.54;85.43;100426.75;1742569;81;25768;-77
2023/01/01 01:36:14;;;;;;;13.88;8.00;;;;;;;13.55;85.37;100418.49;1740762;80;25857;-77
2023/01/01 01:38:41;;;;;;;10.45;7.55;;;;;;;13.58;85.16;100418.59;1728139;82;25788;-77
2023/01/01 01:41:09;;;;;;;11.97;7.03;;;;;;;13.61;85.14;100419.50;1738173;80;28239;-77
2023/01/01 01:43:40;;;;;;;10.30;6.55;;;;;;;13.61;84.88;100425.72;1744954;81;26076;-78
2023/01/01 01:46:14;;;;;;;12.15;6.75;;;;;;;13.62;84.90;100420.63;1736374;81;25720;-78
2023/01/01 01:48:49;;;;;;;11.33;5.50;;;;;;;13.64;84.79;100418.55;1727229;81;25931;-77
2023/01/01 01:51:23;;;;;;;8.93;5.50;;;;;;;13.66;84.65;100423.23;1745409;80;25896;-78
2023/01/01 01:53:54;;;;;;;8.73;5.42;;;;;;;13.66;84.56;100417.02;1737104;81;26919;-78
2023/01/01 01:56:27;;;;;;;;;;;;;;;13.68;84.40;100422.50;1746441;81;26335;-77
2023/01/01 01:58:53;;;;;;;8.28;4.65;;;;;;;13.70;84.28;100417.73;1730898;81;25265;-78
2023/01/01 02:01:22;;;;;;;8.40;4.92;;;;;;;13.70;84.13;100417.73;1751606;80;25797;-77
2023/01/01 02:03:59;;;;;;;7.78;4.95;;;;;;;13.72;84.14;100425.59;1752556;80;26046;-77
2023/01/01 02:06:29;;;;;;;6.65;4.72;;;;;;;13.73;84.03;100429.41;1738830;80;27440;-78
2023/01/01 02:08:58;;;;;;;9.45;5.08;;;;;;;13.76;83.76;100432.20;1752133;80;26087;-78
2023/01/01 02:11:25;;;;;;;5.85;4.25;;;;;;;13.75;83.60;100427.33;1750512;80;25708;-79
2023/01/01 02:13:53;;;;;;;10.40;5.25;;;;;;;13.77;83.40;100425.80;1749095;80;26372;-79
2023/01/01 02:16:34;;;;;;;7.78;4.95;;;;;;;13.78;83.32;100430.13;1752927;80;25221;-78
2023/01/01 02:19:08;;;;;;;7.47;4.50;;;;;;;13.80;83.35;100436.13;1750944;80;26913;-79
2023/01/01 02:22:14;;;;;;;8.85;4.60;;;;;;;13.79;82.84;100425.06;1747903;80;25844;-78
2023/01/01 02:25:14;;;;;;;7.53;5.05;;;;;;;13.80;82.95;100427.53;1745443;80;26525;-79
2023/01/01 02:27:48;;;;;;;6.90;4.40;;;;;;;13.78;82.82;100424.73;1749928;81;25866;-79
2023/01/01 02:30:17;;;;;;;6.72;4.05;;;;;;;13.78;82.72;100412.63;1751733;80;25897;-78
2023/01/01 02:32:54;;;;;;;8.25;4.72;;;;;;;13.77;82.50;100418.52;1750586;80;27453;-78
2023/01/01 02:35:34;;;;;;;7.67;4.42;;;;;;;13.78;82.45;100409.93;1735850;80;25798;-79
2023/01/01 02:38:24;;;;;;;9.18;4.40;;;;;;;13.77;82.38;100407.75;1758331;80;26454;-78
2023/01/01 02:40:56;;;;;;;7.22;4.33;;;;;;;13.77;82.33;100415.02;1751464;80;25838;-78
2023/01/01 02:43:22;;;;;;;6.72;4.72;;;;;;;13.76;82.26;100407.46;1743316;80;26413;-77
2023/01/01 02:45:49;;;;;;;6.58;4.30;;;;;;;13.77;82.27;100409.64;1786495;78;27851;-77
2023/01/01 02:48:49;;;;;;;8.70;4.25;;;;;;;13.77;81.98;100409.64;1799607;78;25835;-78
2023/01/01 02:51:45;;;;;;;7.75;4.97;;;;;;;13.76;81.84;100398.55;1778140;78;25850;-78
2023/01/01 02:54:20;;;;;;;8.30;4.50;;;;;;;13.75;81.85;100402.30;1786357;78;25904;-78
2023/01/01 02:57:08;;;;;;;7.58;4.90;;;;;;;13.75;81.70;100395.02;1790537;78;26045;-80
2023/01/01 03:00:18;;;;;;;7.35;4.70;;;;;;;13.76;81.66;100395.86;1796229;78;27488;-77
2023/01/01 03:02:55;;;;;;;7.97;4.90;;;;;;;13.75;81.68;100396.37;1757132;80;25887;-78
2023/01/01 03:09:04;;;;;;;7.53;4.50;;;;;;;13.73;81.47;100387.68;1794300;78;25771;-77
2023/01/01 03:11:57;;;;;;;8.38;5.15;;;;;;;13.74;81.18;100398.77;1790681;78;26429;-78
2023/01/01 03:14:41;;;;;;;7.65;4.62;;;;;;;13.75;81.00;100411.72;1786442;78;27449;-79
2023/01/01 03:17:27;;;;;;;9.70;4.37;;;;;;;13.77;81.04;100419.86;1794227;78;25960;-78
2023/01/01 03:19:56;;;;;;;7.53;4.08;;;;;;;13.78;80.88;100420.70;1734736;80;26607;-78
2023/01/01 03:22:28;;;;;;;6.72;4.62;;;;;;;13.79;80.49;100419.13;1766106;80;25833;-78
2023/01/01 03:25:08;;;;;;;7.10;5.30;;;;;;;13.82;80.65;100431.35;1754537;80;25447;-78
2023/01/01 03:27:48;;;;;;;7.25;4.30;;;;;;;13.86;80.31;100437.96;1749004;80;27459;-77
2023/01/01 03:30:19;;;;;;;6.80;4.45;;;;;;;13.87;80.01;100436.42;1789575;78;26364;-78
2023/01/01 03:32:59;;;;;;;7.80;4.72;;;;;;;13.89;79.99;100437.04;1757352;80;25757;-78
2023/01/01 03:35:43;;;;;;;6.85;4.40;;;;;;;13.91;79.59;100434.13;1769577;80;33093;-78
2023/01/01 03:38:18;;;;;;;7.60;4.35;;;;;;;13.92;79.37;100435.25;1766284;79;25942;-78
2023/01/01 03:40:48;;;;;;;6.30;4.45;;;;;;;13.97;79.04;100445.90;1789668;78;27455;-78
2023/01/01 03:43:20;;;;;;;6.95;4.25;;;;;;;13.99;78.91;100443.31;1767705;79;25779;-77
2023/01/01 03:45:50;;;;;;;6.45;4.10;;;;;;;14.00;78.95;100438.25;1740481;80;25761;-78
2023/01/01 03:48:16;;;;;;;7.53;3.60;;;;;;;14.01;78.59;100446.61;1740210;81;25836;-77
2023/01/01 03:50:51;;;;;;;6.95;4.50;;;;;;;14.03;78.35;100453.96;1740734;80;25730;-78
2023/01/01 03:53:29;;;;;;;6.65;4.33;;;;;;;14.06;78.51;100446.81;1736192;81;28265;-78
2023/01/01 03:56:18;;;;;;;6.55;3.02;;;;;;;14.09;78.30;100457.69;1724251;82;26339;-78
2023/01/01 03:58:52;;;;;;;6.05;4.12;;;;;;;14.09;77.91;100456.34;1770816;80;25781;-79
2023/01/01 04:01:26;;;;;;;5.75;3.52;;;;;;;14.11;77.94;100454.26;1760672;79;26556;-79
2023/01/01 04:06:29;;;;;;;6.42;3.72;;;;;;;14.21;77.35;100454.63;1819580;77;25735;-78
2023/01/01 04:08:57;;;;;;;6.87;3.87;;;;;;;;;;1792229;79;25894;-78
2023/01/01 04:14:27;;;;;;;;;;;;;;;14.23;76.70;100449.84;1794948;79;26475;-78
2023/01/01 04:16:55;;;;;;;5.62;3.72;;;;;;;14.25;76.77;100451.80;1761338;79;25711;-78
2023/01/01 04:19:22;;;;;;;7.10;3.75;;;;;;;14.24;76.78;100458.25;1780416;78;25750;-77
2023/01/01 04:21:48;;;;;;;5.60;3.90;;;;;;;14.25;76.93;100467.97;1788003;79;25795;-77
2023/01/01 04:24:15;;;;;;;7.28;4.10;;;;;;;14.28;76.49;100468.91;1794755;78;27444;-78
2023/01/01 04:26:41;;;;;;;7.08;4.28;;;;;;;14.29;76.44;100466.53;1788827;79;25754;-78
2023/01/01 04:29:07;;;;;;;6.30;3.60;;;;;;;14.30;76.35;100466.34;1791260;78;25862;-78
2023/01/01 04:31:35;;;;;;;6.90;3.50;;;;;;;14.30;76.38;100473.08;1792917;79;25908;-78
2023/01/01 04:34:01;;;;;;;7.20;4.37;;;;;;;14.31;76.22;100461.75;1795404;78;25813;-78
2023/01/01 04:36:27;;;;;;;6.53;3.83;;;;;;;14.30;76.30;100471.73;1793222;79;28289;-78
2023/01/01 04:38:54;;;;;;;5.83;3.77;;;;;;;14.30;76.03;100466.85;1792235;79;25947;-77
2023/01/01 04:41:20;;;;;;;5.12;3.60;;;;;;;14.28;75.96;100469.73;1792643;79;25754;-78
2023/01/01 04:43:50;;;;;;;5.87;3.90;;;;;;;14.27;75.98;100473.97;1792339;79;25825;-78
2023/01/01 04:46:19;;;;;;;8.33;4.37;;;;;;;14.26;75.62;100475.03;1792544;79;26311;-79
2023/01/01 04:48:46;;;;;;;7.10;4.17;;;;;;;14.24;75.90;100485.99;1795042;78;27464;-78
2023/01/01 04:51:16;;;;;;;5.80;3.98;;;;;;;14.21;75.64;100481.05;1789654;78;26305;-77
2023/01/01 04:53:43;;;;;;;7.75;3.92;;;;;;;14.19;75.69;100479.61;1790654;79;25860;-78
2023/01/01 04:56:18;;;;;;;6.60;3.90;;;;;;;14.17;75.76;100479.83;1783583;79;25849;-78
2023/01/01 04:58:45;;;;;;;4.60;3.20;;;;;;;14.14;75.61;100477.55;1791128;79;25753;-78
2023/01/01 05:01:22;;;;;;;5.50;3.67;;;;;;;14.12;75.42;100481.48;1795960;78;27435;-77
2023/01/01 05:03:48;;;;;;;4.80;3.40;;;;;;;14.11;75.63;100483.89;1792972;79;25833;-79
2023/01/01 05:06:16;;;;;;;6.12;4.00;;;;;;;14.09;75.49;100476.03;1791290;78;26649;-78
2023/01/01 05:08:45;;;;;;;6.70;3.70;;;;;;;14.09;75.52;100479.23;1781340;79;25852;-77
2023/01/01 05:11:16;;;;;;;6.25;3.40;;;;;;;14.06;75.46;100481.83;1789638;78;25743;-78
2023/01/01 05:13:46;;;;;;;7.37;3.90;;;;;;;14.05;75.41;100484.73;1788833;78;27496;-78
2023/01/01 05:16:16;;;;;;;5.35;3.35;;;;;;;14.05;75.16;100486.89;1819179;77;26721;-77
2023/01/01 05:18:43;;;;;;;4.97;3.47;;;;;;;14.03;75.03;100482.78;1817741;77;25813;-78
2023/01/01 05:21:16;;;;;;;6.70;3.58;;;;;;;14.02;75.28;100490.03;1813580;77;25718;-78
2023/01/01 05:23:43;;;;;;;5.12;3.15;;;;;;;14.01;75.23;100488.36;1808632;78;26381;-77
2023/01/01 05:26:19;;;;;;;5.62;3.80;;;;;;;14.01;75.27;100490.25;1819644;77;27428;-79
2023/01/01 05:28:47;;;;;;;6.78;3.75;;;;;;;14.02;75.35;100495.92;1818751;77;25714;-77
2023/01/01 05:31:20;;;;;;;7.78;3.70;;;;;;;14.02;75.42;100496.76;1816984;77;25886;-77
2023/01/01 05:33:47;;;;;;;4.42;3.35;;;;;;;14.01;75.22;100505.86;1807971;78;25576;-78
2023/01/01 05:36:20;;;;;;;5.35;3.65;;;;;;;14.00;75.24;100506.92;1806876;78;25935;-78
2023/01/01 05:38:47;;;;;;;6.50;3.30;;;;;;;13.98;75.22;100503.61;1818165;77;27554;-78
2023/01/01 05:41:16;;;;;;;5.70;3.67;;;;;;;13.97;75.33;100514.57;1813732;77;26186;-78
2023/01/01 05:43:42;;;;;;;6.72;4.12;;;;;;;13.97;74.99;100514.57;1783300;78;25861;-78
2023/01/01 05:46:20;;;;;;;7.10;3.98;;;;;;;13.94;74.99;100507.77;1794637;78;26602;-77
2023/01/01 05:48:46;;;;;;;4.55;3.33;;;;;;;13.93;75.01;100519.05;1814464;78;25790;-78
2023/01/01 05:51:17;;;;;;;5.80;3.22;;;;;;;13.94;75.12;100523.92;1809711;78;27451;-77
2023/01/01 05:53:46;;;;;;;5.70;3.85;;;;;;;13.92;75.07;100528.69;1814209;78;25801;-78
2023/01/01 05:56:14;;;;;;;5.67;3.30;;;;;;;13.91;75.02;100531.90;1808679;78;26451;-77
2023/01/01 05:58:41;;;;;;;7.97;3.87;;;;;;;13.89;74.55;100542.05;1785196;78;25911;-78
2023/01/01 06:01:18;;;;;;;5.90;3.15;;;;;;;13.89;74.91;100535.83;1811770;78;25700;-78
2023/01/01 06:03:47;;;;;;;6.37;3.60;;;;;;;13.88;74.86;100539.03;1812841;78;27434;-79
2023/01/01 06:06:17;;;;;;;6.97;3.17;;;;;;;13.85;74.75;100530.05;1809743;77;25853;-77
2023/01/01 06:08:53;;;;;;;4.78;3.25;;;;;;;13.83;74.74;100536.16;1809622;78;26489;-78
2023/01/01 06:11:20;;;;;;;6.40;3.27;;;;;;;13.83;74.61;100533.47;1803870;78;25803;-77
2023/01/01 06:13:47;;;;;;;8.20;3.45;;;;;;;13.84;74.63;100535.11;1807209;78;26069;-77
2023/01/01 06:16:14;;;;;;;5.25;3.00;;;;;;;13.87;74.48;100534.70;1805471;78;27445;-78
2023/01/01 06:18:40;;;;;;;6.75;3.52;;;;;;;13.87;74.46;100540.60;1810075;77;26509;-77
2023/01/01 06:21:13;;;;;;;5.05;3.60;;;;;;;13.85;74.33;100544.86;1799422;78;26386;-78
2023/01/01 06:23:40;;;;;;;5.42;2.87;;;;;;;13.86;74.19;100553.73;1814233;78;26390;-78
2023/01/01 06:26:20;;;;;;;6.17;3.58;;;;;;;13.85;74.15;100556.97;1813672;78;25747;-78
2023/01/01 06:28:47;;;;;;;5.65;3.52;;;;;;;13.83;74.04;100548.79;1794876;79;27459;-78
2023/01/01 06:31:17;;;;;;;7.37;2.90;;;;;;;13.83;74.05;100547.44;1823667;77;25948;-78
2023/01/01 06:33:44;;;;;;;9.05;3.60;;;;;;;13.82;73.91;100542.57;1819249;78;25611;-77
2023/01/01 06:36:14;;;;;;;8.13;3.87;;;;;;;13.82;73.97;100545.77;1816853;77;26266;-78
2023/01/01 06:38:44;;;;;;;6.47;3.08;;;;;;;13.81;73.79;100547.62;1819078;77;33090;-78
2023/01/01 06:41:14;;;;;;;7.60;3.90;;;;;;;13.80;73.62;100541.12;1807095;77;27404;-77
2023/01/01 06:43:41;;;;;;;7.10;3.10;;;;;;;13.80;73.67;100543.30;1814153;77;26369;-77
2023/01/01 06:46:24;;;;;;;5.42;3.37;;;;;;;13.80;73.70;100542.47;1813235;77;26471;-77
2023/01/01 06:48:54;;;;;;;5.33;2.77;;;;;;;13.81;73.47;100550.87;1776175;78;26289;-78
2023/01/01 06:51:24;;;;;;;5.75;3.27;;;;;;;13.83;73.11;100559.56;1818197;77;25714;-78
2023/01/01 06:53:52;;;;;;;5.53;3.07;;;;;;;13.85;73.32;100560.18;1808853;77;28460;-77
2023/01/01 06:56:20;;;;;;;7.03;3.67;;;;;;;13.85;72.91;100552.94;1787612;78;26417;-77
2023/01/01 06:58:46;;;;;;;6.40;3.10;;;;;;;13.87;73.19;100556.75;1778975;79;25898;-77
2023/01/01 07:01:20;;;;;;;9.60;2.90;;;;;;;13.89;73.00;100553.33;1778062;80;25703;-77
2023/01/01 07:03:56;;;;;;;7.47;2.98;;;;;;;13.91;72.76;100562.03;1781379;79;25636;-78
2023/01/01 07:06:24;;;;;;;7.75;3.60;;;;;;;13.94;72.86;100564.31;1782396;78;27422;-78
2023/01/01 07:08:52;;;;;;;5.58;2.95;;;;;;;13.95;72.79;100563.27;1785579;78;25945;-78
2023/01/01 07:11:19;;;;;;;9.25;3.05;;;;;;;13.97;72.51;100571.12;1810543;77;25761;-78
2023/01/01 07:13:45;;;;;;;5.90;3.15;;;;;;;13.97;72.43;100581.38;1791243;78;25906;-78
2023/01/01 07:16:12;;;;;;;3.92;3.00;;;;;;;13.99;72.31;100587.90;1793260;78;25782;-78
2023/01/01 07:18:39;;;;;;;5.15;2.95;;;;;;;13.99;72.15;100583.34;1791329;79;27425;-77
2023/01/01 07:21:26;;;;;;;6.87;3.35;;;;;;;14.02;72.06;100585.64;1793675;78;26452;-78
2023/01/01 07:23:55;;;;;;;7.08;3.10;;;;;;;14.03;72.11;100589.16;1793614;78;25938;-77
2023/01/01 07:26:24;;;;;;;6.10;3.05;;;;;;;14.04;71.92;100598.38;1795201;79;25720;-78
2023/01/01 07:28:51;;;;;;;4.90;3.02;;;;;;;14.06;71.14;100601.69;1797991;78;26254;-78
2023/01/01 07:31:17;;;;;;;6.85;3.33;;;;;;;14.11;70.98;100607.28;1794374;78;27166;-78
2023/01/01 07:33:44;;;;;;;5.47;3.42;;;;;;;14.14;71.39;100605.50;1783383;78;25784;-77
2023/01/01 07:36:10;;;;;;;7.42;3.08;;;;;;;14.18;71.16;100608.62;1793800;79;25914;-77
2023/01/01 07:38:36;;;;;;;6.08;3.17;;;;;;;14.23;70.60;100616.88;1793835;79;26332;-77
2023/01/01 07:41:03;;;;;;;6.72;3.10;;;;;;;14.27;70.85;100616.26;1764899;78;25935;-76
2023/01/01 07:43:30;;;;;;;6.75;3.02;;;;;;;14.32;70.57;100631.83;1793772;78;28259;-77
2023/01/01 07:45:58;;;;;;;4.92;3.25;;;;;;;14.36;70.45;100631.20;1794408;78;25269;-78
2023/01/01 07:48:24;;;;;;;10.18;3.47;;;;;;;14.42;70.24;100635.75;1788483;78;25258;-78
2023/01/01 07:50:51;;;;;;;9.63;3.00;;;;;;;14.50;70.10;100629.28;1797658;78;25791;-78
2023/01/01 07:53:17;;;;;;;6.05;3.05;;;;;;;14.53;69.92;100643.19;1806676;78;25723;-78
2023/01/01 07:55:44;;;;;;;9.48;3.05;;;;;;;14.60;69.17;100641.83;1808043;78;27891;-77
2023/01/01 07:58:11;;;;;;;12.35;3.00;;;;;;;14.64;69.08;100645.23;1801526;78;26324;-78
2023/01/01 08:00:38;;;;;;;5.75;2.95;;;;;;;14.71;68.73;100656.52;1792970;78;25896;-83
2023/01/01 08:03:05;;;;;;;6.97;3.10;;;;;;;14.78;68.88;100653.29;1784118;78;25857;-81
2023/01/01 08:05:34;;;;;;;6.85;3.52;;;;;;;14.83;68.58;100659.69;1798889;78;25277;-82
2023/01/01 08:08:01;;;;;;;7.08;3.37;;;;;;;14.89;68.27;100663.39;1794715;78;28494;-82
2023/01/01 08:10:27;;;;;;;7.97;2.70;;;;;;;14.94;68.35;100664.42;1783144;78;25985;-82
2023/01/01 08:13:02;;;;;;;6.20;3.00;;;;;;;14.98;67.83;100665.66;1786938;78;25608;-81
2023/01/01 08:15:29;;;;;;;9.93;3.65;;;;;;;15.04;67.28;100666.66;1782519;78;25535;-82
2023/01/01 08:17:58;;;;;;;10.45;2.87;;;;;;;15.10;67.58;100667.97;1783857;78;26581;-78
2023/01/01 08:20:26;;;;;;;9.58;3.33;;;;;;;15.16;67.42;100664.95;1780378;78;28262;-82
2023/01/01 08:22:53;;;;;;;9.18;2.90;;;;;;;15.21;66.95;100666.47;1789840;78;26442;-85
2023/01/01 08:25:20;;;;;;;11.12;3.30;;;;;;;15.25;66.96;100671.23;1790524;78;25880;-88
2023/01/01 08:27:46;;;;;;;6.78;3.20;;;;;;;15.28;66.39;100673.51;1794583;79;25736;-84
2023/01/01 08:30:14;;;;;;;7.03;3.10;;;;;;;15.31;66.82;100675.76;1788591;78;26165;-85
2023/01/01 08:32:41;;;;;;;5.37;2.58;;;;;;;15.34;66.28;100673.16;1793030;78;27503;-82
2023/01/01 08:35:08;;;;;;;11.70;3.22;;;;;;;15.37;65.27;100673.57;1809769;77;25900;-86
2023/01/01 08:37:34;;;;;;;11.55;3.00;;;;;;;15.43;65.66;100681.34;1819235;77;25747;-83
2023/01/01 08:40:01;;;;;;;9.80;3.20;;;;;;;15.46;65.38;100682.28;1816430;77;25771;-83
2023/01/01 08:42:27;;;;;;;8.20;3.27;;;;;;;15.51;65.35;100689.70;1779637;79;25576;-77
2023/01/01 08:44:54;;;;;;;8.98;3.42;;;;;;;15.55;65.25;100693.62;1788685;78;28644;-86
2023/01/01 08:47:26;;;;;;;10.70;3.95;;;;;;;15.59;65.38;100704.31;1797055;77;25939;-85
2023/01/01 08:49:52;;;;;;;9.75;3.33;;;;;;;15.64;65.03;100703.96;1805461;77;25860;-77
2023/01/01 08:52:20;;;;;;;8.48;3.02;;;;;;;15.72;65.07;100706.91;1779370;78;25457;-78
2023/01/01 08:54:46;;;;;;;6.87;3.33;;;;;;;15.83;64.54;100707.57;1791428;78;26419;-78
2023/01/01 08:57:13;;;;;;;7.55;3.15;;;;;;;15.92;64.21;100700.87;1795298;79;27513;-77
2023/01/01 08:59:39;;;;;;;8.60;3.47;;;;;;;16.00;63.77;100704.64;1797079;78;26565;-78
2023/01/01 09:02:06;;;;;;;8.85;3.25;;;;;;;16.09;63.92;100700.63;1794439;78;26299;-77
2023/01/01 09:04:33;;;;;;;10.50;3.27;;;;;;;16.16;63.34;100709.52;1791622;78;26374;-77
2023/01/01 09:06:59;;;;;;;12.05;3.80;;;;;;;16.25;63.05;100711.42;1804486;78;26377;-77
2023/01/01 09:09:26;;;;;;;19.30;4.30;;;;;;;16.30;63.01;100708.87;1789423;79;27429;-77
2023/01/01 09:12:00;;;;;;;10.05;3.72;;;;;;;16.34;62.44;100716.32;1806213;78;25814;-77
2023/01/01 09:14:26;;;;;;;5.95;3.15;;;;;;;16.37;62.64;100717.23;1790435;78;25846;-77
2023/01/01 09:16:52;;;;;;;10.03;4.25;;;;;;;16.38;62.10;100724.83;1788356;78;25889;-77
2023/01/01 09:19:18;;;;;;;9.38;4.15;;;;;;;16.38;61.77;100727.54;1788182;78;25716;-77
2023/01/01 09:21:44;;;;;;;9.90;4.00;;;;;;;16.37;61.76;100729.41;1782954;78;27437;-77
2023/01/01 09:24:11;;;;;;;7.10;4.53;;;;;;;16.35;61.33;100708.53;1796766;78;26317;-77
2023/01/01 09:26:37;;;;;;;9.78;3.98;;;;;;;16.35;61.30;100723.39;1787998;79;25778;-76
2023/01/01 09:29:03;;;;;;;11.48;4.50;;;;;;;16.35;61.95;100724.75;1797096;79;25731;-77
2023/01/01 09:31:30;;;;;;;10.20;4.37;;;;;;;16.34;61.30;100716.32;1797596;78;25834;-77
2023/01/01 09:33:56;;;;;;;8.55;3.50;;;;;;;16.34;61.68;100716.32;1791533;78;27428;-77
2023/01/01 09:36:27;;;;;;;9.70;3.77;;;;;;;16.35;61.68;100707.69;1795043;79;25907;-77
2023/01/01 09:38:56;;;;;;;14.80;4.25;;;;;;;16.36;61.98;100711.52;1787205;79;25806;-77
2023/01/01 09:41:33;;;;;;;7.08;3.58;;;;;;;16.40;61.45;100715.42;1793976;76;26710;-77
2023/01/01 09:44:14;;;;;;;11.78;3.67;;;;;;;16.44;61.69;100718.53;1803765;78;26446;-77
2023/01/01 09:46:41;;;;;;;;;;;;;;;16.48;61.55;100714.34;1805580;78;28229;-83
2023/01/01 09:49:34;;;;;;;12.75;3.45;;;;;;;16.50;61.07;100721.22;1807962;78;25446;-82
2023/01/01 09:52:04;;;;;;;9.40;4.25;;;;;;;16.49;61.44;100708.70;1755746;80;25879;-84
2023/01/01 09:54:35;;;;;;;9.13;4.17;;;;;;;16.50;61.04;100710.91;1749612;81;27115;-84
2023/01/01 09:57:09;;;;;;;8.68;3.62;;;;;;;16.49;61.22;100703.28;1754413;80;25860;-83
2023/01/01 09:59:35;;;;;;;9.60;4.20;;;;;;;16.47;61.26;100710.80;1799316;78;28451;-83
2023/01/01 10:02:07;;;;;;;8.85;3.83;;;;;;;16.46;61.08;100705.11;1806311;78;25746;-83
2023/01/01 10:04:51;;;;;;;11.80;4.37;;;;;;;16.44;60.36;100709.91;1802786;78;26466;-84
2023/01/01 10:07:41;;;;;;;10.23;4.95;;;;;;;16.45;60.86;100703.95;1803140;78;26623;-82
2023/01/01 10:10:31;;;;;;;11.57;4.50;;;;;;;16.45;60.91;100698.54;1800382;78;26163;-78
2023/01/01 10:13:21;;;;;;;10.43;3.80;;;;;;;16.46;60.88;100688.05;1810987;78;27441;-78
2023/01/01 10:16:22;;;;;;;15.38;4.95;;;;;;;16.48;60.37;100688.13;1810183;78;25808;-79
2023/01/01 10:18:54;;;;;;;8.08;3.83;;;;;;;16.50;60.76;100686.06;1801413;78;26211;-84
2023/01/01 10:21:35;;;;;;;6.95;3.33;;;;;;;16.53;60.55;100693.70;1795882;78;26154;-86
2023/01/01 10:24:30;;;;;;;7.97;3.62;;;;;;;16.56;60.17;100689.22;1798900;78;25823;-82
2023/01/01 10:26:58;;;;;;;11.03;3.50;;;;;;;16.59;60.36;100684.73;1795268;78;27631;-85
2023/01/01 10:29:32;;;;;;;10.80;4.03;;;;;;;16.63;59.92;100685.93;1773734;79;25402;-85
2023/01/01 10:32:13;;;;;;;10.80;4.58;;;;;;;16.70;60.26;100689.37;1799433;78;26120;-76
2023/01/01 10:34:40;;;;;;;11.50;4.15;;;;;;;16.77;60.36;100690.13;1801010;78;25777;-85
2023/01/01 10:37:09;;;;;;;14.10;4.03;;;;;;;16.82;60.21;100691.66;1773589;80;25938;-82
2023/01/01 10:39:35;;;;;;;6.92;3.58;;;;;;;16.86;59.72;100686.09;1808815;78;27436;-75
2023/01/01 10:42:03;;;;;;;7.28;3.70;;;;;;;16.90;59.63;100683.23;1784074;78;29789;-75
2023/01/01 10:44:33;;;;;;;7.83;3.45;;;;;;;16.93;58.40;100683.31;1764884;80;26496;-76
2023/01/01 10:47:05;;;;;;;11.38;3.75;;;;;;;16.96;59.17;100680.13;1710183;81;26550;-85
2023/01/01 10:49:31;;;;;;;8.15;3.83;;;;;;;16.96;58.74;100673.37;1793827;78;25451;-82
2023/01/01 10:51:58;;;;;;;6.75;3.60;;;;;;;16.95;57.58;100671.73;1800764;78;28004;-87
2023/01/01 10:57:39;;;;;;;13.00;3.67;;;;;;;16.95;57.97;100675.79;1760360;78;26254;-79
2023/01/01 11:00:27;;;;;;;9.85;4.42;;;;;;;16.96;57.95;100672.02;1773420;80;25806;-78
2023/01/01 11:03:17;;;;;;;13.30;4.45;;;;;;;17.03;58.41;100669.23;1769435;79;25784;-78
2023/01/01 11:06:04;;;;;;;7.70;3.20;;;;;;;17.07;57.65;100663.14;1733971;81;27528;-76
2023/01/01 11:08:33;;;;;;;8.40;3.35;;;;;;;17.13;57.94;100663.58;1762336;80;25326;-82
2023/01/01 11:11:02;;;;;;;10.50;3.75;;;;;;;17.18;57.81;100658.84;1766986;80;25825;-76
2023/01/01 11:13:30;;;;;;;13.00;3.87;;;;;;;17.20;57.42;100663.50;1779480;79;25735;-76
2023/01/01 11:15:57;;;;;;;16.42;3.60;;;;;;;17.20;57.00;100660.27;1776285;80;26422;-76
2023/01/01 11:18:34;;;;;;;13.28;3.37;;;;;;;17.20;56.75;100663.50;1770003;80;27435;-77
2023/01/01 11:21:03;;;;;;;8.80;3.27;;;;;;;17.21;57.28;100671.41;1781808;80;25801;-76
2023/01/01 11:23:37;;;;;;;9.50;3.02;;;;;;;17.18;56.75;100665.09;1783069;80;26359;-79
2023/01/01 11:26:14;;;;;;;6.08;3.30;;;;;;;17.19;56.77;100665.92;1773711;80;25788;-82
2023/01/01 11:28:41;;;;;;;8.25;3.22;;;;;;;17.18;57.01;100662.90;1780178;79;28052;-77
2023/01/01 11:31:18;;;;;;;8.93;3.47;;;;;;;17.18;57.19;100664.25;1736748;81;27465;-78
2023/01/01 11:33:52;;;;;;;8.63;3.45;;;;;;;17.17;56.23;100655.30;1777417;79;25285;-77
2023/01/01 11:36:32;;;;;;;8.08;3.35;;;;;;;17.19;55.67;100662.69;1728057;81;25342;-83
2023/01/01 11:39:20;;;;;;;9.75;3.37;;;;;;;17.21;56.43;100661.94;1730334;81;26632;-83
2023/01/01 11:41:50;;;;;;;10.82;3.55;;;;;;;17.20;56.41;100668.39;1764081;80;25724;-77
2023/01/01 11:44:43;;;;;;;9.87;4.20;;;;;;;17.19;56.54;100664.05;1779194;79;27620;-82
2023/01/01 11:47:34;;;;;;;10.35;3.05;;;;;;;17.19;56.83;100662.69;1782210;79;25696;-82
2023/01/01 11:50:22;;;;;;;6.97;3.10;;;;;;;17.20;56.31;100667.03;1774878;79;25890;-81
2023/01/01 11:52:51;;;;;;;7.25;3.95;;;;;;;17.24;56.67;100673.64;1778327;79;25602;-83
2023/01/01 11:55:25;;;;;;;6.42;4.00;;;;;;;17.27;56.32;100679.97;1767953;80;26484;-82
2023/01/01 11:58:05;;;;;;;11.75;3.37;;;;;;;17.29;56.62;100693.27;1786260;77;27436;-83